createdAt,value
2018-10-01T00:00:30.631Z,1011.56
2018-10-01T00:01:30.582Z,1011.55
2018-10-01T00:02:30.549Z,1011.59
2018-10-01T00:03:30.579Z,1011.57
2018-10-01T00:04:30.452Z,1011.58
2018-10-01T00:05:30.399Z,1011.57
2018-10-01T00:06:30.361Z,1011.59
2018-10-01T00:07:30.312Z,1011.60
2018-10-01T00:08:30.275Z,1011.58
2018-10-01T00:09:30.218Z,1011.56
2018-10-01T00:10:30.174Z,1011.57
2018-10-01T00:11:30.129Z,1011.56
2018-10-01T00:12:30.088Z,1011.59
2018-10-01T00:13:30.040Z,1011.59
2018-10-01T00:14:29.990Z,1011.60
2018-10-01T00:15:29.948Z,1011.62
2018-10-01T00:16:29.902Z,1011.61
2018-10-01T00:17:29.854Z,1011.60
2018-10-01T00:18:29.811Z,1011.53
2018-10-01T00:19:29.765Z,1011.51
2018-10-01T00:20:29.717Z,1011.52
2018-10-01T00:21:29.691Z,1011.50
2018-10-01T00:22:29.627Z,1011.52
2018-10-01T00:23:29.581Z,1011.56
2018-10-01T00:24:29.536Z,1011.52
2018-10-01T00:25:29.492Z,1011.47
2018-10-01T00:26:29.445Z,1011.49
2018-10-01T00:27:29.401Z,1011.45
2018-10-01T00:28:29.353Z,1011.47
2018-10-01T00:29:29.311Z,1011.47
2018-10-01T00:30:29.262Z,1011.51
2018-10-01T00:31:29.220Z,1011.52
2018-10-01T00:32:29.173Z,1011.51
2018-10-01T00:33:29.126Z,1011.50
2018-10-01T00:34:29.082Z,1011.44
2018-10-01T00:35:29.038Z,1011.43
2018-10-01T00:36:28.994Z,1011.43
2018-10-01T00:37:28.943Z,1011.39
2018-10-01T00:38:28.965Z,1011.41
2018-10-01T00:39:28.857Z,1011.38
2018-10-01T00:40:28.819Z,1011.45
2018-10-01T00:41:28.767Z,1011.45
2018-10-01T00:42:28.722Z,1011.41
2018-10-01T00:43:28.675Z,1011.45
2018-10-01T00:44:28.639Z,1011.45
2018-10-01T00:45:28.580Z,1011.41
2018-10-01T00:46:28.534Z,1011.42
2018-10-01T00:47:28.498Z,1011.39
2018-10-01T00:48:28.446Z,1011.36
2018-10-01T00:49:28.399Z,1011.33
2018-10-01T00:50:28.354Z,1011.34
2018-10-01T00:51:28.309Z,1011.30
2018-10-01T00:52:28.262Z,1011.23
2018-10-01T00:53:28.217Z,1011.27
2018-10-01T00:54:28.176Z,1011.23
2018-10-01T00:55:28.126Z,1011.21
2018-10-01T00:56:28.082Z,1011.23
2018-10-01T00:57:28.036Z,1011.18
2018-10-01T00:58:27.989Z,1011.17
2018-10-01T00:59:27.950Z,1011.17
2018-10-01T01:00:27.898Z,1011.19
2018-10-01T01:01:27.855Z,1011.21
2018-10-01T01:02:27.814Z,1011.20
2018-10-01T01:03:27.768Z,1011.22
2018-10-01T01:04:27.721Z,1011.19
2018-10-01T01:05:27.672Z,1011.21
2018-10-01T01:06:27.626Z,1011.20
2018-10-01T01:07:27.582Z,1011.26
2018-10-01T01:08:27.536Z,1011.24
2018-10-01T01:09:27.489Z,1011.19
2018-10-01T01:10:27.445Z,1011.23
2018-10-01T01:11:30.155Z,1011.23
2018-10-01T01:12:27.358Z,1011.26
2018-10-01T01:13:27.308Z,1011.29
2018-10-01T01:14:27.263Z,1011.32
2018-10-01T01:15:27.215Z,1011.30
2018-10-01T01:16:27.172Z,1011.35
2018-10-01T01:17:27.129Z,1011.41
2018-10-01T01:18:27.089Z,1011.42
2018-10-01T01:19:27.039Z,1011.45
2018-10-01T01:20:26.990Z,1011.43
2018-10-01T01:21:26.944Z,1011.44
2018-10-01T01:22:26.896Z,1011.44
2018-10-01T01:23:26.853Z,1011.44
2018-10-01T01:24:26.807Z,1011.46
2018-10-01T01:25:26.763Z,1011.46
2018-10-01T01:26:26.717Z,1011.48
2018-10-01T01:27:26.674Z,1011.46
2018-10-01T01:28:26.627Z,1011.44
2018-10-01T01:29:26.579Z,1011.47
2018-10-01T01:30:26.534Z,1011.50
2018-10-01T01:31:26.488Z,1011.48
2018-10-01T01:32:26.440Z,1011.48
2018-10-01T01:33:26.399Z,1011.51
2018-10-01T01:34:26.353Z,1011.52
2018-10-01T01:35:26.311Z,1011.49
2018-10-01T01:36:26.264Z,1011.53
2018-10-01T01:37:26.214Z,1011.55
2018-10-01T01:38:26.170Z,1011.55
2018-10-01T01:39:26.123Z,1011.57
2018-10-01T01:40:26.084Z,1011.57
2018-10-01T01:41:26.036Z,1011.59
2018-10-01T01:42:25.994Z,1011.57
2018-10-01T01:43:25.947Z,1011.62
2018-10-01T01:44:25.899Z,1011.62
2018-10-01T01:45:25.852Z,1011.59
2018-10-01T01:46:25.814Z,1011.56
2018-10-01T01:47:25.760Z,1011.48
2018-10-01T01:48:25.716Z,1011.60
2018-10-01T01:49:25.669Z,1011.59
2018-10-01T01:50:25.624Z,1011.61
2018-10-01T01:51:25.578Z,1011.58
2018-10-01T01:52:25.531Z,1011.60
2018-10-01T01:53:25.487Z,1011.62
2018-10-01T01:54:25.523Z,1011.64
2018-10-01T01:55:25.401Z,1011.63
2018-10-01T01:56:25.350Z,1011.62
2018-10-01T01:57:25.304Z,1011.63
2018-10-01T01:58:25.261Z,1011.61
2018-10-01T01:59:25.213Z,1011.57
2018-10-01T02:00:25.168Z,1011.57
2018-10-01T02:01:25.130Z,1011.61
2018-10-01T02:02:25.075Z,1011.63
2018-10-01T02:03:25.030Z,1011.63
2018-10-01T02:04:24.985Z,1011.64
2018-10-01T02:05:24.941Z,1011.66
2018-10-01T02:06:24.895Z,1011.62
2018-10-01T02:07:24.854Z,1011.62
2018-10-01T02:08:24.815Z,1011.65
2018-10-01T02:09:24.757Z,1011.64
2018-10-01T02:10:24.719Z,1011.62
2018-10-01T02:11:24.674Z,1011.62
2018-10-01T02:12:24.623Z,1011.67
2018-10-01T02:13:24.580Z,1011.68
2018-10-01T02:14:24.533Z,1011.68
2018-10-01T02:15:24.484Z,1011.69
2018-10-01T02:16:24.442Z,1011.67
2018-10-01T02:17:24.402Z,1011.69
2018-10-01T02:18:24.351Z,1011.69
2018-10-01T02:19:24.301Z,1011.71
2018-10-01T02:20:24.255Z,1011.74
2018-10-01T02:21:24.210Z,1011.75
2018-10-01T02:22:24.163Z,1011.75
2018-10-01T02:23:24.121Z,1011.74
2018-10-01T02:24:24.072Z,1011.76
2018-10-01T02:25:24.026Z,1011.72
2018-10-01T02:26:23.980Z,1011.71
2018-10-01T02:27:23.934Z,1011.68
2018-10-01T02:28:23.890Z,1011.73
2018-10-01T02:29:23.849Z,1011.70
2018-10-01T02:30:23.798Z,1011.70
2018-10-01T02:31:23.751Z,1011.73
2018-10-01T02:32:23.706Z,1011.71
2018-10-01T02:33:23.659Z,1011.70
2018-10-01T02:34:23.615Z,1011.71
2018-10-01T02:35:23.567Z,1011.71
2018-10-01T02:36:23.577Z,1011.71
2018-10-01T02:37:23.483Z,1011.72
2018-10-01T02:38:23.434Z,1011.75
2018-10-01T02:39:23.386Z,1011.70
2018-10-01T02:40:23.340Z,1011.73
2018-10-01T02:41:23.292Z,1011.71
2018-10-01T02:42:23.249Z,1011.71
2018-10-01T02:43:23.202Z,1011.68
2018-10-01T02:44:23.158Z,1011.71
2018-10-01T02:45:23.111Z,1011.68
2018-10-01T02:46:23.071Z,1011.69
2018-10-01T02:47:23.019Z,1011.70
2018-10-01T02:48:22.972Z,1011.72
2018-10-01T02:49:22.930Z,1011.73
2018-10-01T02:50:22.880Z,1011.65
2018-10-01T02:51:22.837Z,1011.67
2018-10-01T02:52:22.789Z,1011.64
2018-10-01T02:53:22.759Z,1011.68
2018-10-01T02:54:22.700Z,1011.68
2018-10-01T02:55:22.654Z,1011.63
2018-10-01T02:56:22.607Z,1011.65
2018-10-01T02:57:22.560Z,1011.65
2018-10-01T02:58:22.514Z,1011.63
2018-10-01T02:59:22.469Z,1011.65
2018-10-01T03:00:22.423Z,1011.60
2018-10-01T03:01:22.379Z,1011.65
2018-10-01T03:02:22.330Z,1011.63
2018-10-01T03:03:22.286Z,1011.65
2018-10-01T03:04:22.240Z,1011.65
2018-10-01T03:05:22.195Z,1011.67
2018-10-01T03:06:22.146Z,1011.68
2018-10-01T03:07:22.102Z,1011.72
2018-10-01T03:08:22.056Z,1011.68
2018-10-01T03:09:22.009Z,1011.70
2018-10-01T03:10:21.964Z,1011.68
2018-10-01T03:11:21.920Z,1011.65
2018-10-01T03:12:21.884Z,1011.66
2018-10-01T03:13:21.842Z,1011.60
2018-10-01T03:14:21.780Z,1011.67
2018-10-01T03:15:21.736Z,1011.63
2018-10-01T03:16:21.686Z,1011.66
2018-10-01T03:17:21.642Z,1011.66
2018-10-01T03:18:21.594Z,1011.70
2018-10-01T03:19:21.548Z,1011.68
2018-10-01T03:20:21.502Z,1011.70
2018-10-01T03:21:21.524Z,1011.69
2018-10-01T03:22:21.412Z,1011.69
2018-10-01T03:23:21.365Z,1011.66
2018-10-01T03:24:21.319Z,1011.71
2018-10-01T03:25:21.278Z,1011.70
2018-10-01T03:26:21.230Z,1011.68
2018-10-01T03:27:21.182Z,1011.70
2018-10-01T03:28:21.137Z,1011.74
2018-10-01T03:29:21.092Z,1011.71
2018-10-01T03:30:21.044Z,1011.75
2018-10-01T03:31:20.999Z,1011.74
2018-10-01T03:32:20.958Z,1011.74
2018-10-01T03:33:20.906Z,1011.68
2018-10-01T03:34:20.861Z,1011.65
2018-10-01T03:35:20.818Z,1011.68
2018-10-01T03:36:20.771Z,1011.68
2018-10-01T03:37:20.721Z,1011.70
2018-10-01T03:38:20.676Z,1011.69
2018-10-01T03:39:20.630Z,1011.70
2018-10-01T03:40:20.698Z,1011.71
2018-10-01T03:41:20.539Z,1011.68
2018-10-01T03:42:20.497Z,1011.71
2018-10-01T03:43:20.446Z,1011.71
2018-10-01T03:44:20.398Z,1011.68
2018-10-01T03:45:20.356Z,1011.70
2018-10-01T03:46:20.308Z,1011.74
2018-10-01T03:47:20.273Z,1011.71
2018-10-01T03:48:20.215Z,1011.74
2018-10-01T03:49:20.178Z,1011.74
2018-10-01T03:50:20.129Z,1011.75
2018-10-01T03:51:20.097Z,1011.72
2018-10-01T03:52:20.052Z,1011.68
2018-10-01T03:53:19.989Z,1011.73
2018-10-01T03:54:19.941Z,1011.71
2018-10-01T03:55:19.894Z,1011.70
2018-10-01T03:56:19.848Z,1011.71
2018-10-01T03:57:19.809Z,1011.69
2018-10-01T03:58:19.760Z,1011.66
2018-10-01T03:59:19.713Z,1011.72
2018-10-01T04:00:19.664Z,1011.69
2018-10-01T04:01:19.641Z,1011.67
2018-10-01T04:02:19.574Z,1011.67
2018-10-01T04:03:19.528Z,1011.67
2018-10-01T04:04:19.482Z,1011.73
2018-10-01T04:05:19.434Z,1011.69
2018-10-01T04:06:19.389Z,1011.72
2018-10-01T04:07:19.343Z,1011.68
2018-10-01T04:08:19.297Z,1011.68
2018-10-01T04:09:19.254Z,1011.66
2018-10-01T04:10:19.205Z,1011.64
2018-10-01T04:11:19.159Z,1011.63
2018-10-01T04:12:19.114Z,1011.61
2018-10-01T04:13:19.069Z,1011.66
2018-10-01T04:14:19.033Z,1011.66
2018-10-01T04:15:18.975Z,1011.69
2018-10-01T04:16:18.933Z,1011.64
2018-10-01T04:17:18.888Z,1011.71
2018-10-01T04:18:18.847Z,1011.70
2018-10-01T04:19:18.811Z,1011.75
2018-10-01T04:20:18.759Z,1011.76
2018-10-01T04:21:18.721Z,1011.72
2018-10-01T04:22:18.653Z,1011.73
2018-10-01T04:23:18.614Z,1011.71
2018-10-01T04:24:18.570Z,1011.74
2018-10-01T04:25:18.520Z,1011.72
2018-10-01T04:26:18.472Z,1011.77
2018-10-01T04:27:18.432Z,1011.71
2018-10-01T04:28:18.407Z,1011.75
2018-10-01T04:29:18.345Z,1011.74
2018-10-01T04:30:18.289Z,1011.75
2018-10-01T04:31:18.242Z,1011.75
2018-10-01T04:32:18.197Z,1011.74
2018-10-01T04:33:18.151Z,1011.76
2018-10-01T04:34:18.106Z,1011.74
2018-10-01T04:35:18.063Z,1011.80
2018-10-01T04:36:18.011Z,1011.80
2018-10-01T04:37:17.970Z,1011.82
2018-10-01T04:38:17.923Z,1011.81
2018-10-01T04:39:17.875Z,1011.82
2018-10-01T04:40:17.829Z,1011.81
2018-10-01T04:41:17.782Z,1011.82
2018-10-01T04:42:17.736Z,1011.83
2018-10-01T04:43:17.691Z,1011.87
2018-10-01T04:44:17.648Z,1011.88
2018-10-01T04:45:17.603Z,1011.88
2018-10-01T04:46:17.556Z,1011.92
2018-10-01T04:47:17.510Z,1011.91
2018-10-01T04:48:17.462Z,1011.95
2018-10-01T04:49:17.435Z,1011.93
2018-10-01T04:50:17.375Z,1011.98
2018-10-01T04:51:17.325Z,1011.97
2018-10-01T04:52:17.283Z,1011.90
2018-10-01T04:53:17.239Z,1011.96
2018-10-01T04:54:17.192Z,1012.00
2018-10-01T04:55:17.147Z,1012.05
2018-10-01T04:56:17.099Z,1012.04
2018-10-01T04:57:17.051Z,1012.10
2018-10-01T04:58:17.155Z,1012.15
2018-10-01T04:59:16.961Z,1012.07
2018-10-01T05:00:16.923Z,1012.11
2018-10-01T05:01:16.873Z,1012.12
2018-10-01T05:02:16.822Z,1012.08
2018-10-01T05:03:16.780Z,1012.06
2018-10-01T05:04:16.730Z,1012.03
2018-10-01T05:05:16.686Z,1012.10
2018-10-01T05:06:16.686Z,1012.04
2018-10-01T05:07:16.593Z,1012.01
2018-10-01T05:08:16.548Z,1012.02
2018-10-01T05:09:16.503Z,1011.99
2018-10-01T05:10:16.456Z,1011.98
2018-10-01T05:11:16.410Z,1011.96
2018-10-01T05:12:16.365Z,1011.97
2018-10-01T05:13:16.323Z,1011.97
2018-10-01T05:14:16.276Z,1011.98
2018-10-01T05:15:16.231Z,1011.98
2018-10-01T05:16:16.180Z,1012.02
2018-10-01T05:17:16.134Z,1012.09
2018-10-01T05:18:16.091Z,1012.11
2018-10-01T05:19:16.043Z,1012.10
2018-10-01T05:20:15.999Z,1012.09
2018-10-01T05:21:15.951Z,1012.12
2018-10-01T05:22:15.905Z,1012.14
2018-10-01T05:23:15.861Z,1012.13
2018-10-01T05:24:15.814Z,1012.17
2018-10-01T05:25:15.769Z,1012.17
2018-10-01T05:26:15.722Z,1012.20
2018-10-01T05:27:15.761Z,1012.18
2018-10-01T05:28:15.630Z,1012.20
2018-10-01T05:29:15.586Z,1012.21
2018-10-01T05:30:15.539Z,1012.21
2018-10-01T05:31:15.501Z,1012.19
2018-10-01T05:32:15.448Z,1012.17
2018-10-01T05:33:15.403Z,1012.18
2018-10-01T05:34:15.356Z,1012.20
2018-10-01T05:35:15.309Z,1012.21
2018-10-01T05:36:15.261Z,1012.21
2018-10-01T05:37:15.223Z,1012.19
2018-10-01T05:38:15.174Z,1012.20
2018-10-01T05:39:15.127Z,1012.22
2018-10-01T05:40:15.083Z,1012.22
2018-10-01T05:41:15.034Z,1012.27
2018-10-01T05:42:14.992Z,1012.27
2018-10-01T05:43:14.943Z,1012.30
2018-10-01T05:44:14.898Z,1012.31
2018-10-01T05:45:14.856Z,1012.31
2018-10-01T05:46:14.806Z,1012.28
2018-10-01T05:47:14.761Z,1012.32
2018-10-01T05:48:14.712Z,1012.31
2018-10-01T05:49:14.696Z,1012.31
2018-10-01T05:50:14.623Z,1012.34
2018-10-01T05:51:14.578Z,1012.36
2018-10-01T05:52:14.536Z,1012.36
2018-10-01T05:53:14.486Z,1012.41
2018-10-01T05:54:14.439Z,1012.42
2018-10-01T05:55:14.394Z,1012.45
2018-10-01T05:56:14.352Z,1012.49
2018-10-01T05:57:14.315Z,1012.48
2018-10-01T05:58:14.334Z,1012.47
2018-10-01T05:59:14.208Z,1012.56
2018-10-01T06:00:14.166Z,1012.56
2018-10-01T06:01:14.118Z,1012.57
2018-10-01T06:02:14.081Z,1012.59
2018-10-01T06:03:14.026Z,1012.59
2018-10-01T06:04:13.980Z,1012.59
2018-10-01T06:05:13.933Z,1012.60
2018-10-01T06:06:13.888Z,1012.63
2018-10-01T06:07:13.843Z,1012.64
2018-10-01T06:08:13.800Z,1012.64
2018-10-01T06:09:13.751Z,1012.71
2018-10-01T06:10:13.704Z,1012.68
2018-10-01T06:11:13.661Z,1012.69
2018-10-01T06:12:13.622Z,1012.72
2018-10-01T06:13:13.566Z,1012.76
2018-10-01T06:14:13.523Z,1012.76
2018-10-01T06:15:13.476Z,1012.79
2018-10-01T06:16:13.431Z,1012.85
2018-10-01T06:17:13.382Z,1012.85
2018-10-01T06:18:13.378Z,1012.84
2018-10-01T06:19:13.294Z,1012.85
2018-10-01T06:20:13.246Z,1012.95
2018-10-01T06:21:13.205Z,1012.95
2018-10-01T06:22:13.167Z,1013.00
2018-10-01T06:23:13.107Z,1012.96
2018-10-01T06:24:13.061Z,1013.00
2018-10-01T06:25:13.045Z,1013.02
2018-10-01T06:26:12.970Z,1013.04
2018-10-01T06:27:12.924Z,1013.08
2018-10-01T06:28:12.877Z,1013.08
2018-10-01T06:29:12.833Z,1013.08
2018-10-01T06:30:12.787Z,1013.08
2018-10-01T06:31:12.740Z,1013.10
2018-10-01T06:32:12.693Z,1013.14
2018-10-01T06:33:12.648Z,1013.11
2018-10-01T06:34:12.611Z,1013.16
2018-10-01T06:35:12.924Z,1013.16
2018-10-01T06:36:12.573Z,1013.15
2018-10-01T06:37:12.465Z,1013.13
2018-10-01T06:38:12.417Z,1013.11
2018-10-01T06:39:12.375Z,1013.13
2018-10-01T06:40:12.331Z,1013.13
2018-10-01T06:41:12.282Z,1013.07
2018-10-01T06:42:12.259Z,1013.14
2018-10-01T06:43:12.189Z,1013.11
2018-10-01T06:44:12.142Z,1013.15
2018-10-01T06:45:12.097Z,1013.10
2018-10-01T06:46:12.051Z,1013.12
2018-10-01T06:47:12.008Z,1013.10
2018-10-01T06:48:11.959Z,1013.11
2018-10-01T06:49:11.915Z,1013.16
2018-10-01T06:50:11.872Z,1013.07
2018-10-01T06:51:11.857Z,1013.12
2018-10-01T06:52:11.780Z,1013.15
2018-10-01T06:53:11.734Z,1013.15
2018-10-01T06:54:11.684Z,1013.18
2018-10-01T06:55:11.642Z,1013.17
2018-10-01T06:56:11.597Z,1013.18
2018-10-01T06:57:11.550Z,1013.26
2018-10-01T06:58:11.503Z,1013.26
2018-10-01T06:59:11.457Z,1013.25
2018-10-01T07:00:11.411Z,1013.24
2018-10-01T07:01:11.408Z,1013.27
2018-10-01T07:02:11.320Z,1013.27
2018-10-01T07:03:11.273Z,1013.26
2018-10-01T07:04:11.228Z,1013.29
2018-10-01T07:05:11.200Z,1013.29
2018-10-01T07:06:11.160Z,1013.28
2018-10-01T07:07:11.100Z,1013.34
2018-10-01T07:08:11.053Z,1013.31
2018-10-01T07:09:11.001Z,1013.33
2018-10-01T07:10:10.956Z,1013.30
2018-10-01T07:11:10.988Z,1013.33
2018-10-01T07:12:10.866Z,1013.32
2018-10-01T07:13:10.819Z,1013.31
2018-10-01T07:14:10.783Z,1013.41
2018-10-01T07:15:10.732Z,1013.40
2018-10-01T07:16:10.690Z,1013.40
2018-10-01T07:17:10.744Z,1013.40
2018-10-01T07:18:10.593Z,1013.45
2018-10-01T07:19:10.547Z,1013.40
2018-10-01T07:20:10.503Z,1013.42
2018-10-01T07:21:10.456Z,1013.42
2018-10-01T07:22:10.418Z,1013.46
2018-10-01T07:23:10.454Z,1013.49
2018-10-01T07:24:10.322Z,1013.47
2018-10-01T07:25:10.274Z,1013.49
2018-10-01T07:26:10.232Z,1013.50
2018-10-01T07:27:10.185Z,1013.50
2018-10-01T07:28:10.138Z,1013.51
2018-10-01T07:29:10.093Z,1013.54
2018-10-01T07:30:10.051Z,1013.58
2018-10-01T07:31:10.011Z,1013.55
2018-10-01T07:32:09.961Z,1013.56
2018-10-01T07:33:09.914Z,1013.61
2018-10-01T07:34:09.869Z,1013.60
2018-10-01T07:35:09.822Z,1013.63
2018-10-01T07:36:09.776Z,1013.65
2018-10-01T07:37:09.745Z,1013.67
2018-10-01T07:38:09.687Z,1013.66
2018-10-01T07:39:09.641Z,1013.66
2018-10-01T07:40:09.593Z,1013.67
2018-10-01T07:41:09.554Z,1013.66
2018-10-01T07:42:09.506Z,1013.63
2018-10-01T07:43:09.466Z,1013.64
2018-10-01T07:44:09.416Z,1013.64
2018-10-01T07:45:09.445Z,1013.62
2018-10-01T07:46:09.412Z,1013.66
2018-10-01T07:47:09.277Z,1013.67
2018-10-01T07:48:09.236Z,1013.69
2018-10-01T07:49:09.194Z,1013.67
2018-10-01T07:50:09.143Z,1013.68
2018-10-01T07:51:09.212Z,1013.74
2018-10-01T07:52:09.053Z,1013.76
2018-10-01T07:53:09.017Z,1013.79
2018-10-01T07:54:08.963Z,1013.79
2018-10-01T07:55:08.920Z,1013.81
2018-10-01T07:56:08.876Z,1013.79
2018-10-01T07:57:08.870Z,1013.79
2018-10-01T07:58:08.783Z,1013.83
2018-10-01T07:59:08.741Z,1013.85
2018-10-01T08:00:08.783Z,1013.85
2018-10-01T08:01:08.651Z,1013.82
2018-10-01T08:02:08.675Z,1013.90
2018-10-01T08:03:08.562Z,1013.89
2018-10-01T08:04:08.519Z,1013.92
2018-10-01T08:05:08.475Z,1014.03
2018-10-01T08:06:08.430Z,1013.96
2018-10-01T08:07:08.383Z,1013.98
2018-10-01T08:08:08.389Z,1014.04
2018-10-01T08:09:08.300Z,1014.05
2018-10-01T08:10:08.251Z,1014.02
2018-10-01T08:11:08.213Z,1014.08
2018-10-01T08:12:08.161Z,1014.03
2018-10-01T08:13:08.118Z,1014.10
2018-10-01T08:14:08.101Z,1014.07
2018-10-01T08:15:08.029Z,1014.09
2018-10-01T08:16:07.984Z,1014.12
2018-10-01T08:17:07.943Z,1014.13
2018-10-01T08:18:07.898Z,1014.13
2018-10-01T08:19:07.855Z,1014.17
2018-10-01T08:20:07.854Z,1014.14
2018-10-01T08:21:07.772Z,1014.19
2018-10-01T08:22:07.724Z,1014.18
2018-10-01T08:23:07.689Z,1014.21
2018-10-01T08:24:07.635Z,1014.21
2018-10-01T08:25:07.601Z,1014.21
2018-10-01T08:26:07.613Z,1014.22
2018-10-01T08:27:07.507Z,1014.23
2018-10-01T08:28:07.459Z,1014.23
2018-10-01T08:29:07.460Z,1014.25
2018-10-01T08:30:07.376Z,1014.21
2018-10-01T08:31:07.328Z,1014.25
2018-10-01T08:32:07.303Z,1014.27
2018-10-01T08:33:07.243Z,1014.35
2018-10-01T08:34:07.197Z,1014.33
2018-10-01T08:35:07.217Z,1014.36
2018-10-01T08:36:07.109Z,1014.37
2018-10-01T08:37:07.065Z,1014.40
2018-10-01T08:38:07.041Z,1014.38
2018-10-01T08:39:06.980Z,1014.43
2018-10-01T08:40:06.939Z,1014.42
2018-10-01T08:41:06.936Z,1014.44
2018-10-01T08:42:06.852Z,1014.44
2018-10-01T08:43:06.804Z,1014.50
2018-10-01T08:44:06.822Z,1014.59
2018-10-01T08:45:06.723Z,1014.57
2018-10-01T08:46:06.673Z,1014.55
2018-10-01T08:47:06.639Z,1014.62
2018-10-01T08:48:06.586Z,1014.58
2018-10-01T08:49:06.545Z,1014.61
2018-10-01T08:50:06.569Z,1014.63
2018-10-01T08:51:06.455Z,1014.70
2018-10-01T08:52:06.454Z,1014.68
2018-10-01T08:53:06.460Z,1014.67
2018-10-01T08:54:06.325Z,1014.70
2018-10-01T08:55:06.282Z,1014.68
2018-10-01T08:56:06.261Z,1014.76
2018-10-01T08:57:06.196Z,1014.64
2018-10-01T08:58:06.152Z,1014.62
2018-10-01T08:59:06.161Z,1014.68
2018-10-01T09:00:06.065Z,1014.64
2018-10-01T09:01:06.071Z,1014.61
2018-10-01T09:02:06.036Z,1014.61
2018-10-01T09:03:05.934Z,1014.61
2018-10-01T09:04:05.892Z,1014.65
2018-10-01T09:05:05.886Z,1014.63
2018-10-01T09:06:05.810Z,1014.63
2018-10-01T09:07:05.760Z,1014.67
2018-10-01T09:08:05.721Z,1014.68
2018-10-01T09:09:05.674Z,1014.65
2018-10-01T09:10:05.630Z,1014.71
2018-10-01T09:11:05.635Z,1014.71
2018-10-01T09:12:05.545Z,1014.74
2018-10-01T09:13:05.501Z,1014.77
2018-10-01T09:14:05.483Z,1014.74
2018-10-01T09:15:05.501Z,1014.70
2018-10-01T09:16:05.369Z,1014.77
2018-10-01T09:17:05.343Z,1014.75
2018-10-01T09:18:05.282Z,1014.82
2018-10-01T09:19:05.241Z,1014.81
2018-10-01T09:20:05.324Z,1014.77
2018-10-01T09:21:05.233Z,1014.76
2018-10-01T09:22:05.118Z,1014.79
2018-10-01T09:23:05.075Z,1014.75
2018-10-01T09:24:05.033Z,1014.75
2018-10-01T09:25:04.983Z,1014.82
2018-10-01T09:26:05.012Z,1014.76
2018-10-01T09:27:04.892Z,1014.75
2018-10-01T09:28:04.848Z,1014.79
2018-10-01T09:29:04.873Z,1014.77
2018-10-01T09:30:04.762Z,1014.66
2018-10-01T09:31:04.809Z,1014.69
2018-10-01T09:32:04.716Z,1014.65
2018-10-01T09:33:04.632Z,1014.57
2018-10-01T09:34:04.597Z,1014.68
2018-10-01T09:35:04.572Z,1014.68
2018-10-01T09:36:04.503Z,1014.74
2018-10-01T09:37:04.460Z,1014.69
2018-10-01T09:38:04.465Z,1014.74
2018-10-01T09:39:04.370Z,1014.67
2018-10-01T09:40:04.332Z,1014.71
2018-10-01T09:41:04.285Z,1014.70
2018-10-01T09:42:04.358Z,1014.64
2018-10-01T09:43:04.199Z,1014.61
2018-10-01T09:44:04.180Z,1014.73
2018-10-01T09:45:04.110Z,1014.76
2018-10-01T09:46:04.121Z,1014.73
2018-10-01T09:47:04.023Z,1014.81
2018-10-01T09:48:04.007Z,1014.79
2018-10-01T09:49:03.936Z,1014.82
2018-10-01T09:50:03.922Z,1014.80
2018-10-01T09:51:03.869Z,1014.78
2018-10-01T09:52:03.834Z,1014.80
2018-10-01T09:53:03.761Z,1014.87
2018-10-01T09:54:03.716Z,1014.79
2018-10-01T09:55:03.676Z,1014.78
2018-10-01T09:56:03.687Z,1014.81
2018-10-01T09:57:03.590Z,1014.79
2018-10-01T09:58:03.571Z,1014.79
2018-10-01T09:59:03.498Z,1014.78
2018-10-01T10:00:03.457Z,1014.76
2018-10-01T10:01:03.415Z,1014.84
2018-10-01T10:02:03.422Z,1014.77
2018-10-01T10:03:03.330Z,1014.81
2018-10-01T10:04:03.340Z,1014.74
2018-10-01T10:05:03.237Z,1014.83
2018-10-01T10:06:03.196Z,1014.82
2018-10-01T10:07:03.155Z,1014.86
2018-10-01T10:08:03.126Z,1014.78
2018-10-01T10:09:03.066Z,1014.76
2018-10-01T10:10:03.032Z,1014.79
2018-10-01T10:11:02.989Z,1014.76
2018-10-01T10:12:02.937Z,1014.73
2018-10-01T10:13:02.887Z,1014.78
2018-10-01T10:14:02.890Z,1014.73
2018-10-01T10:15:02.799Z,1014.74
2018-10-01T10:16:02.798Z,1014.87
2018-10-01T10:17:02.760Z,1014.76
2018-10-01T10:18:02.740Z,1014.75
2018-10-01T10:19:02.624Z,1014.75
2018-10-01T10:20:02.598Z,1014.79
2018-10-01T10:21:02.540Z,1014.85
2018-10-01T10:22:02.549Z,1014.91
2018-10-01T10:23:02.450Z,1014.82
2018-10-01T10:24:02.408Z,1014.78
2018-10-01T10:25:02.363Z,1014.73
2018-10-01T10:26:02.342Z,1014.77
2018-10-01T10:27:02.314Z,1014.69
2018-10-01T10:28:02.287Z,1014.83
2018-10-01T10:29:02.197Z,1014.82
2018-10-01T10:30:02.152Z,1014.76
2018-10-01T10:31:02.109Z,1014.85
2018-10-01T10:32:02.064Z,1014.77
2018-10-01T10:33:02.014Z,1014.86
2018-10-01T10:34:01.987Z,1014.87
2018-10-01T10:35:01.926Z,1014.85
2018-10-01T10:36:01.882Z,1014.92
2018-10-01T10:37:01.840Z,1014.92
2018-10-01T10:38:01.799Z,1014.94
2018-10-01T10:39:01.755Z,1014.91
2018-10-01T10:40:01.707Z,1014.92
2018-10-01T10:41:01.666Z,1014.96
2018-10-01T10:42:01.623Z,1014.93
2018-10-01T10:43:01.582Z,1015.01
2018-10-01T10:44:01.592Z,1015.01
2018-10-01T10:45:01.492Z,1014.94
2018-10-01T10:46:01.473Z,1014.95
2018-10-01T10:47:01.406Z,1014.99
2018-10-01T10:48:01.413Z,1015.00
2018-10-01T10:49:01.320Z,1015.03
2018-10-01T10:50:01.276Z,1015.03
2018-10-01T10:51:01.230Z,1015.09
2018-10-01T10:52:01.183Z,1015.06
2018-10-01T10:53:01.140Z,1015.10
2018-10-01T10:54:01.098Z,1015.12
2018-10-01T10:55:01.057Z,1015.23
2018-10-01T10:56:01.041Z,1015.23
2018-10-01T10:57:01.014Z,1015.41
2018-10-01T10:58:00.932Z,1015.32
2018-10-01T10:59:00.880Z,1015.42
2018-10-01T11:00:00.836Z,1015.48
2018-10-01T11:01:00.796Z,1015.61
2018-10-01T11:02:00.752Z,1015.52
2018-10-01T11:03:00.705Z,1015.60
2018-10-01T11:04:00.686Z,1015.61
2018-10-01T11:05:00.616Z,1015.65
2018-10-01T11:06:00.698Z,1015.67
2018-10-01T11:07:00.618Z,1015.72
2018-10-01T11:08:00.583Z,1015.67
2018-10-01T11:09:00.438Z,1015.69
2018-10-01T11:10:00.464Z,1015.61
2018-10-01T11:11:00.354Z,1015.59
2018-10-01T11:12:00.307Z,1015.61
2018-10-01T11:13:00.291Z,1015.57
2018-10-01T11:14:00.395Z,1015.56
2018-10-01T11:15:00.503Z,1015.57
2018-10-01T11:16:00.260Z,1015.56
2018-10-01T11:17:00.463Z,1015.57
2018-10-01T11:18:00.637Z,1015.59
2018-10-01T11:19:00.229Z,1015.60
2018-10-01T11:20:00.046Z,1015.68
2018-10-01T11:21:00.131Z,1015.66
2018-10-01T11:22:00.043Z,1015.64
2018-10-01T11:22:59.822Z,1015.68
2018-10-01T11:23:59.774Z,1015.65
2018-10-01T11:24:59.735Z,1015.62
2018-10-01T11:25:59.685Z,1015.57
2018-10-01T11:26:59.753Z,1015.62
2018-10-01T11:27:59.597Z,1015.62
2018-10-01T11:28:59.615Z,1015.62
2018-10-01T11:29:59.508Z,1015.64
2018-10-01T11:30:59.463Z,1015.64
2018-10-01T11:31:59.497Z,1015.61
2018-10-01T11:32:59.449Z,1015.61
2018-10-01T11:33:59.330Z,1015.59
2018-10-01T11:34:59.405Z,1015.59
2018-10-01T11:35:59.241Z,1015.60
2018-10-01T11:36:59.195Z,1015.64
2018-10-01T11:37:59.151Z,1015.62
2018-10-01T11:38:59.167Z,1015.58
2018-10-01T11:39:59.064Z,1015.63
2018-10-01T11:40:59.016Z,1015.59
2018-10-01T11:41:58.972Z,1015.61
2018-10-01T11:42:58.929Z,1015.68
2018-10-01T11:43:58.881Z,1015.63
2018-10-01T11:44:58.849Z,1015.67
2018-10-01T11:45:58.798Z,1015.63
2018-10-01T11:46:58.750Z,1015.68
2018-10-01T11:47:58.703Z,1015.71
2018-10-01T11:48:58.659Z,1015.74
2018-10-01T11:49:58.613Z,1015.71
2018-10-01T11:50:58.603Z,1015.77
2018-10-01T11:51:58.527Z,1015.73
2018-10-01T11:52:58.481Z,1015.77
2018-10-01T11:53:58.437Z,1015.77
2018-10-01T11:54:58.392Z,1015.71
2018-10-01T11:55:58.349Z,1015.75
2018-10-01T11:56:58.316Z,1015.77
2018-10-01T11:57:58.259Z,1015.78
2018-10-01T11:58:58.215Z,1015.77
2018-10-01T11:59:58.168Z,1015.75
2018-10-01T12:00:58.124Z,1015.77
2018-10-01T12:01:58.128Z,1015.76
2018-10-01T12:02:58.103Z,1015.71
2018-10-01T12:03:58.076Z,1015.77
2018-10-01T12:04:57.955Z,1015.75